createdAt,value
2022-08-21T00:00:44.029Z,99940.19
2022-08-21T00:03:32.515Z,99934.59
2022-08-21T00:06:21.052Z,99935.88
2022-08-21T00:09:10.628Z,99936.31
2022-08-21T00:11:58.636Z,99924.56
2022-08-21T00:14:46.699Z,99931.31
2022-08-21T00:17:36.581Z,99921.03
2022-08-21T00:20:25.536Z,99922.25
2022-08-21T00:23:14.250Z,99929.44
2022-08-21T00:26:02.366Z,99921.50
2022-08-21T00:28:50.844Z,99914.72
2022-08-21T00:31:39.252Z,99920.22
2022-08-21T00:34:28.755Z,99922.25
2022-08-21T00:37:16.758Z,99920.59
2022-08-21T00:40:05.295Z,99912.75
2022-08-21T00:42:53.987Z,99914.34
2022-08-21T00:45:42.102Z,99892.03
2022-08-21T00:48:30.489Z,99919.22
2022-08-21T00:51:26.501Z,99924.75
2022-08-21T00:54:19.097Z,99925.56
2022-08-21T00:57:14.572Z,99921.63
2022-08-21T01:00:10.591Z,99920.09
2022-08-21T01:03:00.083Z,99918.53
2022-08-21T01:05:48.732Z,99916.94
2022-08-21T01:08:38.105Z,99923.31
2022-08-21T01:11:34.868Z,99924.47
2022-08-21T01:14:23.661Z,99927.66
2022-08-21T01:17:12.384Z,99919.78
2022-08-21T01:20:00.946Z,99908.44
2022-08-21T01:22:50.371Z,99925.72
2022-08-21T01:25:38.875Z,99922.97
2022-08-21T01:28:28.554Z,99919.84
2022-08-21T01:31:24.791Z,99919.91
2022-08-21T01:34:16.599Z,99920.38
2022-08-21T01:37:04.759Z,99925.19
2022-08-21T01:39:54.505Z,99918.84
2022-08-21T01:42:42.645Z,99923.66
2022-08-21T01:45:30.937Z,99921.69
2022-08-21T01:48:19.135Z,99925.28
2022-08-21T01:51:07.993Z,99907.97
2022-08-21T01:53:56.068Z,99925.69
2022-08-21T01:56:49.198Z,99929.28
2022-08-21T01:59:37.921Z,99921.38
2022-08-21T02:02:25.991Z,99915.09
2022-08-21T02:05:15.511Z,99920.63
2022-08-21T02:08:04.020Z,99911.94
2022-08-21T02:10:53.380Z,99910.81
2022-08-21T02:13:42.784Z,99917.50
2022-08-21T02:16:30.972Z,99911.19
2022-08-21T02:19:21.327Z,99904.50
2022-08-21T02:22:10.605Z,99907.25
2022-08-21T02:24:58.663Z,99902.53
2022-08-21T02:27:48.570Z,99901.72
2022-08-21T02:30:40.519Z,99895.03
2022-08-21T02:33:28.923Z,99896.25
2022-08-21T02:36:17.034Z,99898.66
2022-08-21T02:39:05.222Z,99897.81
2022-08-21T02:41:53.301Z,99893.50
2022-08-21T02:44:41.408Z,99896.66
2022-08-21T02:47:30.810Z,99893.50
2022-08-21T02:50:21.735Z,99894.28
2022-08-21T02:53:12.023Z,99891.91
2022-08-21T02:56:02.021Z,99872.66
2022-08-21T02:58:51.929Z,99890.00
2022-08-21T03:01:40.088Z,99884.44
2022-08-21T03:04:29.687Z,99887.59
2022-08-21T03:07:17.956Z,99886.38
2022-08-21T03:10:07.033Z,99890.28
2022-08-21T03:12:55.962Z,99889.13
2022-08-21T03:15:44.534Z,99889.91
2022-08-21T03:18:32.610Z,99896.25
2022-08-21T03:21:22.058Z,99899.44
2022-08-21T03:24:10.151Z,99893.13
2022-08-21T03:26:58.234Z,99897.06
2022-08-21T03:29:46.309Z,99895.13
2022-08-21T03:32:34.721Z,99880.16
2022-08-21T03:35:22.800Z,99894.34
2022-08-21T03:38:13.702Z,99898.31
2022-08-21T03:41:03.469Z,99895.53
2022-08-21T03:43:51.570Z,99896.72
2022-08-21T03:46:41.026Z,99893.16
2022-08-21T03:49:29.445Z,99895.16
2022-08-21T03:52:18.033Z,99901.91
2022-08-21T03:55:08.537Z,99904.28
2022-08-21T03:57:56.794Z,99907.03
2022-08-21T04:00:45.564Z,99903.50
2022-08-21T04:03:34.042Z,99916.50
2022-08-21T04:06:22.113Z,99917.28
2022-08-21T04:09:10.578Z,99912.13
2022-08-21T04:12:00.852Z,99915.72
2022-08-21T04:14:49.768Z,99916.09
2022-08-21T04:17:37.881Z,99920.84
2022-08-21T04:20:26.341Z,99931.53
2022-08-21T04:23:14.514Z,99932.69
2022-08-21T04:26:12.862Z,99928.72
2022-08-21T04:29:02.444Z,99931.88
2022-08-21T04:31:50.688Z,99928.75
2022-08-21T04:34:38.768Z,99937.06
2022-08-21T04:37:26.883Z,99939.03
2022-08-21T04:40:16.863Z,99940.59
2022-08-21T04:43:07.879Z,99938.25
2022-08-21T04:45:57.331Z,99946.56
2022-08-21T04:48:45.485Z,99942.19
2022-08-21T04:51:36.614Z,99941.78
2022-08-21T04:54:25.110Z,99940.56
2022-08-21T04:57:14.827Z,99934.25
2022-08-21T05:00:03.785Z,99948.84
2022-08-21T05:02:57.308Z,99946.06
2022-08-21T05:05:45.983Z,99943.69
2022-08-21T05:08:34.807Z,99953.53
2022-08-21T05:11:23.062Z,99950.34
2022-08-21T05:14:14.301Z,99950.72
2022-08-21T05:17:02.710Z,99952.28
2022-08-21T05:19:52.231Z,99957.81
2022-08-21T05:22:40.488Z,99956.63
2022-08-21T05:25:28.738Z,99953.78
2022-08-21T05:28:19.000Z,99955.28
2022-08-21T05:31:07.756Z,99962.38
2022-08-21T05:33:55.957Z,99967.00
2022-08-21T05:36:45.536Z,99965.66
2022-08-21T05:40:20.155Z,99963.94
2022-08-21T05:42:42.078Z,99963.47
2022-08-21T05:45:42.865Z,99961.38
2022-08-21T05:48:32.848Z,99967.19
2022-08-21T05:51:20.927Z,99963.09
2022-08-21T05:54:10.352Z,99960.72
2022-08-21T05:56:58.753Z,99970.94
2022-08-21T05:59:46.833Z,99949.63
2022-08-21T06:02:34.909Z,99964.88
2022-08-21T06:05:25.081Z,99965.63
2022-08-21T06:08:25.933Z,99965.06
2022-08-21T06:11:15.360Z,99962.22
2022-08-21T06:14:03.493Z,99960.84
2022-08-21T06:16:51.564Z,99963.75
2022-08-21T06:19:40.035Z,99966.28
2022-08-21T06:22:29.761Z,99962.94
2022-08-21T06:25:17.832Z,99969.53
2022-08-21T06:28:09.237Z,99971.25
2022-08-21T06:30:57.453Z,99970.53
2022-08-21T06:33:45.627Z,99973.44
2022-08-21T06:36:33.687Z,99977.25
2022-08-21T06:39:25.420Z,99975.47
2022-08-21T06:42:19.753Z,99982.56
2022-08-21T06:45:09.943Z,99969.75
2022-08-21T06:47:58.088Z,99981.09
2022-08-21T06:50:46.152Z,99978.38
2022-08-21T06:53:34.859Z,99975.88
2022-08-21T06:56:22.920Z,99975.50
2022-08-21T06:59:11.008Z,99977.44
2022-08-21T07:02:01.063Z,99980.63
2022-08-21T07:04:49.200Z,99981.81
2022-08-21T07:07:37.279Z,99990.25
2022-08-21T07:10:25.710Z,99984.00
2022-08-21T07:13:14.358Z,99983.53
2022-08-21T07:16:04.202Z,99986.06
2022-08-21T07:18:53.949Z,99985.06
2022-08-21T07:21:42.166Z,99976.66
2022-08-21T07:24:30.470Z,99976.38
2022-08-21T07:27:18.816Z,99971.53
2022-08-21T07:30:08.408Z,99967.53
2022-08-21T07:32:56.602Z,99963.66
2022-08-21T07:35:46.718Z,99966.22
2022-08-21T07:38:34.832Z,99961.06
2022-08-21T07:41:26.412Z,99963.84
2022-08-21T07:44:14.503Z,99961.84
2022-08-21T07:47:03.061Z,99962.06
2022-08-21T07:49:51.120Z,99971.03
2022-08-21T07:52:40.688Z,99961.78
2022-08-21T07:55:28.924Z,99970.84
2022-08-21T07:58:17.057Z,99956.78
2022-08-21T08:01:05.371Z,99965.88
2022-08-21T08:03:53.484Z,99969.03
2022-08-21T08:06:41.539Z,99965.97
2022-08-21T08:09:31.013Z,99963.47
2022-08-21T08:12:19.415Z,99971.91
2022-08-21T08:15:09.734Z,99969.31
2022-08-21T08:17:58.507Z,99969.31
2022-08-21T08:20:46.627Z,99967.59
2022-08-21T08:23:35.041Z,99957.75
2022-08-21T08:26:24.689Z,99952.00
2022-08-21T08:29:12.792Z,99951.53
2022-08-21T08:32:00.970Z,99948.88
2022-08-21T08:34:52.449Z,99947.34
2022-08-21T08:37:41.992Z,99951.69
2022-08-21T08:40:36.649Z,99941.72
2022-08-21T08:43:30.806Z,99942.03
2022-08-21T08:46:22.563Z,99932.66
2022-08-21T08:49:17.228Z,99927.97
2022-08-21T08:52:14.839Z,99917.72
2022-08-21T08:55:06.917Z,99917.72
2022-08-21T08:57:56.769Z,99912.47
2022-08-21T09:00:50.984Z,99909.19
2022-08-21T09:03:40.661Z,99908.66
2022-08-21T09:06:45.266Z,99916.53
2022-08-21T09:09:50.439Z,99899.91
2022-08-21T09:12:47.557Z,99907.44
2022-08-21T09:15:44.234Z,99902.94
2022-08-21T09:18:47.367Z,99902.56
2022-08-21T09:21:43.664Z,99899.47
2022-08-21T09:24:40.402Z,99902.22
2022-08-21T09:27:28.587Z,99893.00
2022-08-21T09:30:17.212Z,99892.91
2022-08-21T09:33:05.396Z,99882.69
2022-08-21T09:35:58.651Z,99888.03
2022-08-21T09:38:55.957Z,99860.75
2022-08-21T09:41:44.023Z,99891.34
2022-08-21T09:44:34.813Z,99884.81
2022-08-21T09:47:26.783Z,99899.84
2022-08-21T09:50:17.949Z,99898.34
2022-08-21T09:53:17.308Z,99895.44
2022-08-21T09:56:34.466Z,99883.75
2022-08-21T09:59:36.083Z,99888.78
2022-08-21T10:02:29.760Z,99884.38
2022-08-21T10:05:21.152Z,99841.25
2022-08-21T10:08:20.681Z,99882.88
2022-08-21T10:11:10.887Z,99887.06
2022-08-21T10:14:05.882Z,99880.22
2022-08-21T10:17:05.597Z,99879.78
2022-08-21T10:19:58.999Z,99870.72
2022-08-21T10:22:58.228Z,99873.91
2022-08-21T10:26:14.321Z,99872.50
2022-08-21T10:29:10.785Z,99863.75
2022-08-21T10:32:05.558Z,99865.28
2022-08-21T10:35:19.852Z,99855.66
2022-08-21T10:38:55.299Z,99859.38
2022-08-21T10:42:08.365Z,99854.22
2022-08-21T10:45:12.506Z,99850.00
2022-08-21T10:48:06.226Z,99865.19
2022-08-21T10:51:01.673Z,99852.28
2022-08-21T10:54:01.746Z,99861.97
2022-08-21T10:57:00.433Z,99861.25
2022-08-21T10:59:57.578Z,99851.41
2022-08-21T11:02:52.760Z,99856.59
2022-08-21T11:05:47.527Z,99838.81
2022-08-21T11:08:43.449Z,99846.69
2022-08-21T11:11:38.134Z,99828.91
2022-08-21T11:14:36.459Z,99831.78
2022-08-21T11:17:31.832Z,99836.47
2022-08-21T11:20:29.997Z,99824.41
2022-08-21T11:23:25.258Z,99825.13
2022-08-21T11:26:17.740Z,99821.97
2022-08-21T11:29:13.728Z,99819.47
2022-08-21T11:32:21.774Z,99800.88
2022-08-21T11:35:15.624Z,99820.56
2022-08-21T11:38:21.603Z,99813.00
2022-08-21T11:41:24.699Z,99806.72
2022-08-21T11:44:25.095Z,99807.25
2022-08-21T11:47:27.267Z,99803.94
2022-08-21T11:50:34.248Z,99793.44
2022-08-21T11:53:30.950Z,99803.91
2022-08-21T11:56:25.068Z,99797.78
2022-08-21T11:59:21.622Z,99798.03
2022-08-21T12:02:16.801Z,99796.97
2022-08-21T12:05:09.289Z,99786.28
2022-08-21T12:08:12.493Z,99793.34
2022-08-21T12:11:08.194Z,99783.50
2022-08-21T12:13:58.480Z,99782.53
2022-08-21T12:16:48.689Z,99777.13
2022-08-21T12:19:38.147Z,99778.91
2022-08-21T12:22:39.069Z,99781.94
2022-08-21T12:25:39.435Z,99780.97
2022-08-21T12:28:33.000Z,99775.53
2022-08-21T12:31:24.106Z,99775.31
2022-08-21T12:34:12.779Z,99775.34
2022-08-21T12:37:05.835Z,99775.56
2022-08-21T12:39:57.321Z,99778.34
2022-08-21T12:42:58.712Z,99769.38
2022-08-21T12:45:50.029Z,99766.03
2022-08-21T12:48:47.196Z,99771.75
2022-08-21T12:51:45.322Z,99754.00
2022-08-21T12:54:40.856Z,99766.75
2022-08-21T12:57:31.731Z,99759.81
2022-08-21T13:00:23.919Z,99759.84
2022-08-21T13:03:12.103Z,99759.09
2022-08-21T13:06:01.067Z,99771.72
2022-08-21T13:08:53.263Z,99774.56
2022-08-21T13:11:44.285Z,99770.91
2022-08-21T13:14:45.401Z,99754.44
2022-08-21T13:17:38.789Z,99762.72
2022-08-21T13:20:31.159Z,99764.22
2022-08-21T13:23:25.791Z,99768.31
2022-08-21T13:26:18.396Z,99771.41
2022-08-21T13:29:13.420Z,99762.38
2022-08-21T13:32:04.646Z,99754.88
2022-08-21T13:34:54.209Z,99746.16
2022-08-21T13:37:44.716Z,99747.66
2022-08-21T13:40:41.920Z,99743.09
2022-08-21T13:43:33.503Z,99742.31
2022-08-21T13:46:26.097Z,99750.84
2022-08-21T13:49:17.262Z,99747.22
2022-08-21T13:52:07.137Z,99752.16
2022-08-21T13:54:57.625Z,99732.78
2022-08-21T13:57:45.843Z,99736.84
2022-08-21T14:00:37.082Z,99732.94
2022-08-21T14:03:34.652Z,99732.47
2022-08-21T14:06:25.883Z,99736.69
2022-08-21T14:09:25.807Z,99737.63
2022-08-21T14:12:23.102Z,99727.34
2022-08-21T14:15:15.491Z,99717.88
2022-08-21T14:18:11.626Z,99716.94
2022-08-21T14:21:10.128Z,99714.97
2022-08-21T14:24:06.615Z,99701.63
2022-08-21T14:26:57.342Z,99700.59
2022-08-21T14:29:45.889Z,99705.50
2022-08-21T14:32:40.178Z,99702.38
2022-08-21T14:35:33.137Z,99700.06
2022-08-21T14:38:27.053Z,99691.81
2022-08-21T14:41:19.251Z,99695.16
2022-08-21T14:44:09.416Z,99687.97
2022-08-21T14:46:58.196Z,99694.94
2022-08-21T14:49:46.352Z,99697.25
2022-08-21T14:52:34.421Z,99693.38
2022-08-21T14:55:23.903Z,99692.34
2022-08-21T14:58:12.106Z,99678.97
2022-08-21T15:01:04.429Z,99681.75
2022-08-21T15:03:52.624Z,99667.09
2022-08-21T15:06:40.739Z,99672.53
2022-08-21T15:09:29.173Z,99679.72
2022-08-21T15:12:18.732Z,99677.44
2022-08-21T15:15:08.451Z,99675.09
2022-08-21T15:17:56.539Z,99663.53
2022-08-21T15:20:44.732Z,99675.38
2022-08-21T15:23:32.927Z,99668.63
2022-08-21T15:26:21.966Z,99674.59
2022-08-21T15:29:11.454Z,99677.66
2022-08-21T15:32:01.649Z,99656.81
2022-08-21T15:34:49.996Z,99666.84
2022-08-21T15:37:38.084Z,99679.22
2022-08-21T15:40:27.061Z,99680.25
2022-08-21T15:43:30.093Z,99673.25
2022-08-21T15:46:22.143Z,99674.66
2022-08-21T15:49:10.879Z,99671.25
2022-08-21T15:51:59.069Z,99665.88
2022-08-21T15:54:47.500Z,99661.28
2022-08-21T15:57:36.823Z,99661.31
2022-08-21T16:00:26.547Z,99657.25
2022-08-21T16:03:22.386Z,99661.59
2022-08-21T16:06:10.616Z,99648.00
2022-08-21T16:08:58.691Z,99653.19
2022-08-21T16:11:47.721Z,99653.47
2022-08-21T16:14:37.255Z,99657.06
2022-08-21T16:17:29.610Z,99660.19
2022-08-21T16:20:21.949Z,99651.69
2022-08-21T16:23:09.956Z,99655.56
2022-08-21T16:26:00.146Z,99652.69
2022-08-21T16:28:58.613Z,99650.59
2022-08-21T16:31:46.777Z,99645.16
2022-08-21T16:34:35.097Z,99646.81
2022-08-21T16:37:24.733Z,99642.59
2022-08-21T16:40:13.911Z,99642.47
2022-08-21T16:43:02.893Z,99640.94
2022-08-21T16:45:50.956Z,99623.78
2022-08-21T16:48:39.465Z,99625.38
2022-08-21T16:51:27.434Z,99616.84
2022-08-21T16:54:16.879Z,99616.91
2022-08-21T16:57:05.280Z,99612.81
2022-08-21T16:59:53.378Z,99617.34
2022-08-21T17:02:44.678Z,99614.88
2022-08-21T17:05:33.070Z,99611.91
2022-08-21T17:08:22.125Z,99613.97
2022-08-21T17:11:36.545Z,99615.31
2022-08-21T17:14:26.006Z,99605.38
2022-08-21T17:17:14.991Z,99606.13
2022-08-21T17:20:03.193Z,99607.34
2022-08-21T17:22:51.472Z,99616.69
2022-08-21T17:25:42.396Z,99594.44
2022-08-21T17:28:35.036Z,99615.97
2022-08-21T17:31:23.865Z,99615.97
2022-08-21T17:34:12.989Z,99612.66
2022-08-21T17:37:01.254Z,99615.47
2022-08-21T17:39:49.298Z,99612.72
2022-08-21T17:42:37.857Z,99612.50
2022-08-21T17:45:27.559Z,99610.28
2022-08-21T17:48:15.688Z,99608.50
2022-08-21T17:51:03.852Z,99601.41
2022-08-21T17:53:51.922Z,99607.53
2022-08-21T17:56:42.780Z,99604.78
2022-08-21T17:59:31.108Z,99607.00
2022-08-21T18:02:21.688Z,99605.28
2022-08-21T18:05:12.376Z,99603.59
2022-08-21T18:08:00.392Z,99597.78
2022-08-21T18:10:50.876Z,99609.00
2022-08-21T18:13:41.200Z,99601.00
2022-08-21T18:16:30.190Z,99603.94
2022-08-21T18:19:21.854Z,99602.66
2022-08-21T18:22:11.015Z,99607.56
2022-08-21T18:24:59.580Z,99612.91
2022-08-21T18:27:49.282Z,99611.16
2022-08-21T18:30:40.491Z,99599.69
2022-08-21T18:33:28.917Z,99615.50
2022-08-21T18:36:18.308Z,99627.19
2022-08-21T18:39:34.518Z,99637.94
2022-08-21T18:42:18.044Z,99631.19
2022-08-21T18:45:11.387Z,99633.25
2022-08-21T18:47:59.975Z,99633.75
2022-08-21T18:50:49.595Z,99633.88
2022-08-21T18:53:40.310Z,99629.88
2022-08-21T18:56:29.408Z,99637.34
2022-08-21T18:59:18.197Z,99620.41
2022-08-21T19:02:08.059Z,99641.63
2022-08-21T19:04:56.747Z,99635.13
2022-08-21T19:07:46.333Z,99643.94
2022-08-21T19:10:37.059Z,99640.47
2022-08-21T19:13:28.374Z,99647.41
2022-08-21T19:16:18.021Z,99650.09
2022-08-21T19:19:07.992Z,99635.03
2022-08-21T19:21:56.030Z,99647.19
2022-08-21T19:24:49.830Z,99638.91
2022-08-21T19:27:41.301Z,99647.03
2022-08-21T19:30:30.778Z,99645.03
2022-08-21T19:33:25.726Z,99643.16
2022-08-21T19:36:14.773Z,99601.66
2022-08-21T19:39:07.276Z,99652.97
2022-08-21T19:41:59.795Z,99627.09
2022-08-21T19:44:57.430Z,99648.31
2022-08-21T19:47:50.643Z,99655.44
2022-08-21T19:50:38.800Z,99642.72
2022-08-21T19:53:27.059Z,99651.44
2022-08-21T19:56:19.438Z,99649.50
2022-08-21T19:59:09.298Z,99643.50
2022-08-21T20:01:58.885Z,99649.19
2022-08-21T20:04:53.941Z,99652.44
2022-08-21T20:07:43.168Z,99657.25
2022-08-21T20:10:31.760Z,99647.41
2022-08-21T20:13:21.584Z,99660.41
2022-08-21T20:16:13.301Z,99654.34
2022-08-21T20:19:05.203Z,99655.53
2022-08-21T20:21:55.039Z,99655.72
2022-08-21T20:24:44.531Z,99650.22
2022-08-21T20:27:32.721Z,99652.22
2022-08-21T20:30:29.272Z,99624.72
2022-08-21T20:33:17.736Z,99654.97
2022-08-21T20:36:08.511Z,99658.47
2022-08-21T20:38:57.127Z,99653.69
2022-08-21T20:41:47.817Z,99661.66
2022-08-21T20:44:37.555Z,99656.28
2022-08-21T20:47:34.751Z,99655.88
2022-08-21T20:50:27.449Z,99659.44
2022-08-21T20:53:43.829Z,99625.09
2022-08-21T20:56:40.913Z,99661.91
2022-08-21T20:59:42.422Z,99657.66
2022-08-21T21:02:43.649Z,99655.63
2022-08-21T21:05:36.104Z,99661.13
2022-08-21T21:08:29.189Z,99654.44
2022-08-21T21:11:22.082Z,99662.03
2022-08-21T21:14:15.794Z,99654.91
2022-08-21T21:17:06.774Z,99654.22
2022-08-21T21:19:59.181Z,99665.81
2022-08-21T21:22:51.930Z,99659.69
2022-08-21T21:25:53.854Z,99670.84
2022-08-21T21:28:49.394Z,99675.63
2022-08-21T21:31:39.159Z,99653.88
2022-08-21T21:34:28.468Z,99669.75
2022-08-21T21:37:25.325Z,99668.50
2022-08-21T21:40:35.984Z,99671.53
2022-08-21T21:43:40.270Z,99672.97
2022-08-21T21:46:40.480Z,99667.06
2022-08-21T21:49:38.983Z,99667.81
2022-08-21T21:52:44.627Z,99673.84
2022-08-21T21:55:43.532Z,99671.38
2022-08-21T21:58:56.050Z,99670.03
2022-08-21T22:01:49.864Z,99667.81
2022-08-21T22:04:50.905Z,99662.25
2022-08-21T22:07:44.699Z,99667.94
2022-08-21T22:10:43.250Z,99667.25
2022-08-21T22:13:38.600Z,99663.34
2022-08-21T22:16:28.367Z,99659.69
2022-08-21T22:19:21.073Z,99656.25
2022-08-21T22:22:15.344Z,99659.34
2022-08-21T22:25:08.710Z,99621.44
2022-08-21T22:28:03.569Z,99660.13
2022-08-21T22:30:57.033Z,99653.53
2022-08-21T22:34:05.140Z,99649.75
2022-08-21T22:36:59.283Z,99664.09
2022-08-21T22:39:55.400Z,99658.06
2022-08-21T22:42:58.616Z,99658.25
2022-08-21T22:45:58.862Z,99667.06
2022-08-21T22:48:56.988Z,99672.81
2022-08-21T22:51:47.674Z,99689.75
2022-08-21T22:54:38.367Z,99678.31
2022-08-21T22:57:29.392Z,99677.81
2022-08-21T23:00:38.957Z,99689.00
2022-08-21T23:03:32.790Z,99690.84
2022-08-21T23:06:30.965Z,99689.72
2022-08-21T23:09:22.766Z,99685.41
2022-08-21T23:12:33.098Z,99688.00
2022-08-21T23:15:22.759Z,99685.63
2022-08-21T23:18:18.057Z,99688.06
2022-08-21T23:21:16.590Z,99662.75
2022-08-21T23:24:49.649Z,99663.38
2022-08-21T23:27:52.209Z,99671.81
2022-08-21T23:30:47.882Z,99669.22
2022-08-21T23:33:52.080Z,99668.25
2022-08-21T23:37:14.993Z,99672.34
2022-08-21T23:43:45.155Z,99674.59
2022-08-21T23:46:47.207Z,99678.41
2022-08-21T23:53:10.993Z,99678.16
2022-08-21T23:56:23.387Z,99686.66
2022-08-21T23:59:28.138Z,99682.56
